sensor_id;sensor_type;location;lat;lon;timestamp;P1;durP1;ratioP1;P2;durP2;ratioP2
66272;SDS011;58450;52.150;4.466;2023-07-08T09:45:39;4.65;;;2.80;;
66272;SDS011;58450;52.150;4.466;2023-07-08T09:48:14;4.28;;;2.70;;
66272;SDS011;58450;52.150;4.466;2023-07-08T09:52:11;4.88;;;3.00;;
66272;SDS011;58450;52.150;4.466;2023-07-08T09:54:40;4.43;;;2.80;;
66272;SDS011;58450;52.150;4.466;2023-07-08T09:57:09;5.63;;;3.22;;
66272;SDS011;58450;52.150;4.466;2023-07-08T09:59:49;4.97;;;3.25;;
66272;SDS011;58450;52.150;4.466;2023-07-08T10:02:26;4.20;;;3.05;;
66272;SDS011;58450;52.150;4.466;2023-07-08T10:04:59;5.65;;;3.20;;
66272;SDS011;58450;52.150;4.466;2023-07-08T10:07:39;4.70;;;3.13;;
66272;SDS011;58450;52.150;4.466;2023-07-08T10:10:07;5.35;;;2.90;;
66272;SDS011;58450;52.150;4.466;2023-07-08T10:12:41;5.00;;;3.15;;
66272;SDS011;58450;52.150;4.466;2023-07-08T10:15:22;4.22;;;2.95;;
66272;SDS011;58450;52.150;4.466;2023-07-08T10:18:00;5.13;;;3.08;;
66272;SDS011;58450;52.150;4.466;2023-07-08T10:20:30;8.00;;;3.22;;
66272;SDS011;58450;52.150;4.466;2023-07-08T10:23:18;4.85;;;3.30;;
66272;SDS011;58450;52.150;4.466;2023-07-08T10:26:03;4.70;;;2.90;;
66272;SDS011;58450;52.150;4.466;2023-07-08T10:28:44;4.72;;;2.88;;
66272;SDS011;58450;52.150;4.466;2023-07-08T10:31:23;5.05;;;2.90;;
66272;SDS011;58450;52.150;4.466;2023-07-08T10:34:03;5.35;;;2.88;;
66272;SDS011;58450;52.150;4.466;2023-07-08T10:37:04;5.23;;;3.07;;
66272;SDS011;58450;52.150;4.466;2023-07-08T10:39:55;4.57;;;2.88;;
66272;SDS011;58450;52.150;4.466;2023-07-08T10:42:54;6.38;;;2.90;;
66272;SDS011;58450;52.150;4.466;2023-07-08T10:45:52;4.55;;;3.03;;
66272;SDS011;58450;52.150;4.466;2023-07-08T10:48:42;4.47;;;2.83;;
66272;SDS011;58450;52.150;4.466;2023-07-08T10:51:48;5.60;;;3.25;;
66272;SDS011;58450;52.150;4.466;2023-07-08T10:54:41;5.10;;;3.00;;
66272;SDS011;58450;52.150;4.466;2023-07-08T10:57:32;4.55;;;2.92;;
66272;SDS011;58450;52.150;4.466;2023-07-08T11:00:26;4.68;;;3.00;;
66272;SDS011;58450;52.150;4.466;2023-07-08T11:03:15;5.93;;;3.05;;
66272;SDS011;58450;52.150;4.466;2023-07-08T11:06:10;4.68;;;3.00;;
66272;SDS011;58450;52.150;4.466;2023-07-08T11:08:46;5.32;;;3.38;;
66272;SDS011;58450;52.150;4.466;2023-07-08T11:11:27;5.45;;;3.40;;
66272;SDS011;58450;52.150;4.466;2023-07-08T11:14:06;4.30;;;2.83;;
66272;SDS011;58450;52.150;4.466;2023-07-08T11:16:44;5.60;;;3.50;;
66272;SDS011;58450;52.150;4.466;2023-07-08T11:19:19;5.25;;;3.17;;
66272;SDS011;58450;52.150;4.466;2023-07-08T11:21:54;5.15;;;3.40;;
66272;SDS011;58450;52.150;4.466;2023-07-08T11:24:28;6.53;;;3.38;;
66272;SDS011;58450;52.150;4.466;2023-07-08T11:27:07;5.72;;;3.40;;
66272;SDS011;58450;52.150;4.466;2023-07-08T11:29:45;5.60;;;3.30;;
66272;SDS011;58450;52.150;4.466;2023-07-08T11:32:19;6.47;;;3.63;;
66272;SDS011;58450;52.150;4.466;2023-07-08T11:34:53;5.55;;;3.35;;
66272;SDS011;58450;52.150;4.466;2023-07-08T11:37:24;5.60;;;3.65;;
66272;SDS011;58450;52.150;4.466;2023-07-08T11:39:57;6.23;;;4.00;;
66272;SDS011;58450;52.150;4.466;2023-07-08T11:42:47;5.63;;;3.63;;
66272;SDS011;58450;52.150;4.466;2023-07-08T11:47:54;6.18;;;3.40;;
66272;SDS011;58450;52.150;4.466;2023-07-08T11:50:35;4.85;;;3.33;;
66272;SDS011;58450;52.150;4.466;2023-07-08T11:53:07;6.43;;;3.58;;
66272;SDS011;58450;52.150;4.466;2023-07-08T11:55:38;5.18;;;3.30;;
66272;SDS011;58450;52.150;4.466;2023-07-08T11:58:21;6.15;;;3.78;;
66272;SDS011;58450;52.150;4.466;2023-07-08T12:00:52;6.15;;;3.65;;
66272;SDS011;58450;52.150;4.466;2023-07-08T12:03:31;6.07;;;3.72;;
66272;SDS011;58450;52.150;4.466;2023-07-08T12:06:11;5.55;;;3.78;;
66272;SDS011;58450;52.150;4.466;2023-07-08T12:09:13;5.70;;;4.10;;
66272;SDS011;58450;52.150;4.466;2023-07-08T12:11:48;7.63;;;3.53;;
66272;SDS011;58450;52.150;4.466;2023-07-08T12:14:23;6.20;;;3.78;;
66272;SDS011;58450;52.150;4.466;2023-07-08T12:16:55;6.88;;;3.97;;
66272;SDS011;58450;52.150;4.466;2023-07-08T12:19:23;5.95;;;4.00;;
66272;SDS011;58450;52.150;4.466;2023-07-08T12:21:57;6.40;;;3.80;;
66272;SDS011;58450;52.150;4.466;2023-07-08T12:24:25;6.40;;;4.25;;
66272;SDS011;58450;52.150;4.466;2023-07-08T12:26:54;5.70;;;3.78;;
66272;SDS011;58450;52.150;4.466;2023-07-08T12:29:21;6.40;;;4.40;;
66272;SDS011;58450;52.150;4.466;2023-07-08T12:31:51;8.32;;;4.65;;
66272;SDS011;58450;52.150;4.466;2023-07-08T12:34:18;7.20;;;4.32;;
66272;SDS011;58450;52.150;4.466;2023-07-08T12:36:51;6.00;;;3.97;;
66272;SDS011;58450;52.150;4.466;2023-07-08T12:39:21;5.55;;;4.05;;
66272;SDS011;58450;52.150;4.466;2023-07-08T12:41:49;6.72;;;4.15;;
66272;SDS011;58450;52.150;4.466;2023-07-08T12:44:17;6.38;;;3.70;;
66272;SDS011;58450;52.150;4.466;2023-07-08T12:46:51;6.63;;;4.30;;
66272;SDS011;58450;52.150;4.466;2023-07-08T12:49:21;6.28;;;3.90;;
66272;SDS011;58450;52.150;4.466;2023-07-08T12:51:53;6.00;;;3.93;;
66272;SDS011;58450;52.150;4.466;2023-07-08T12:54:20;5.90;;;4.15;;
66272;SDS011;58450;52.150;4.466;2023-07-08T12:56:48;5.95;;;4.15;;
66272;SDS011;58450;52.150;4.466;2023-07-08T12:59:19;5.60;;;3.80;;
66272;SDS011;58450;52.150;4.466;2023-07-08T13:01:52;5.70;;;3.80;;
66272;SDS011;58450;52.150;4.466;2023-07-08T13:04:20;5.78;;;3.90;;
66272;SDS011;58450;52.150;4.466;2023-07-08T13:06:48;5.35;;;3.80;;
66272;SDS011;58450;52.150;4.466;2023-07-08T13:09:21;5.18;;;3.47;;
66272;SDS011;58450;52.150;4.466;2023-07-08T13:12:03;5.07;;;3.25;;
66272;SDS011;58450;52.150;4.466;2023-07-08T13:14:50;4.93;;;3.40;;
66272;SDS011;58450;52.150;4.466;2023-07-08T13:17:23;4.93;;;3.40;;
66272;SDS011;58450;52.150;4.466;2023-07-08T13:19:51;5.60;;;3.72;;
66272;SDS011;58450;52.150;4.466;2023-07-08T13:22:20;4.95;;;3.40;;
66272;SDS011;58450;52.150;4.466;2023-07-08T13:24:58;5.10;;;3.20;;
66272;SDS011;58450;52.150;4.466;2023-07-08T13:27:27;6.22;;;3.55;;
66272;SDS011;58450;52.150;4.466;2023-07-08T13:29:56;4.53;;;3.55;;
66272;SDS011;58450;52.150;4.466;2023-07-08T13:32:45;4.28;;;3.28;;
66272;SDS011;58450;52.150;4.466;2023-07-08T13:35:26;5.13;;;3.60;;
66272;SDS011;58450;52.150;4.466;2023-07-08T13:38:03;5.95;;;3.33;;
66272;SDS011;58450;52.150;4.466;2023-07-08T13:40:31;5.63;;;3.55;;
66272;SDS011;58450;52.150;4.466;2023-07-08T13:42:59;4.28;;;3.22;;
66272;SDS011;58450;52.150;4.466;2023-07-08T13:45:30;6.32;;;3.33;;
66272;SDS011;58450;52.150;4.466;2023-07-08T13:48:08;5.60;;;3.47;;
66272;SDS011;58450;52.150;4.466;2023-07-08T13:50:43;5.88;;;3.72;;
66272;SDS011;58450;52.150;4.466;2023-07-08T13:53:24;6.05;;;3.55;;
66272;SDS011;58450;52.150;4.466;2023-07-08T13:56:00;5.50;;;3.58;;
66272;SDS011;58450;52.150;4.466;2023-07-08T13:58:31;7.03;;;3.92;;
66272;SDS011;58450;52.150;4.466;2023-07-08T14:00:58;5.10;;;3.38;;
66272;SDS011;58450;52.150;4.466;2023-07-08T14:03:27;5.68;;;3.50;;
66272;SDS011;58450;52.150;4.466;2023-07-08T14:05:55;4.90;;;3.53;;
66272;SDS011;58450;52.150;4.466;2023-07-08T14:08:22;5.57;;;3.63;;
66272;SDS011;58450;52.150;4.466;2023-07-08T14:10:50;6.15;;;3.72;;
66272;SDS011;58450;52.150;4.466;2023-07-08T14:13:18;5.88;;;3.75;;
66272;SDS011;58450;52.150;4.466;2023-07-08T14:15:46;6.35;;;3.97;;
66272;SDS011;58450;52.150;4.466;2023-07-08T14:18:14;5.75;;;3.60;;
66272;SDS011;58450;52.150;4.466;2023-07-08T14:20:43;5.65;;;3.40;;
66272;SDS011;58450;52.150;4.466;2023-07-08T14:23:11;5.05;;;3.45;;
66272;SDS011;58450;52.150;4.466;2023-07-08T14:25:39;7.00;;;3.40;;
66272;SDS011;58450;52.150;4.466;2023-07-08T14:28:07;5.10;;;3.55;;
66272;SDS011;58450;52.150;4.466;2023-07-08T14:30:34;4.82;;;3.30;;
66272;SDS011;58450;52.150;4.466;2023-07-08T14:33:11;7.72;;;3.60;;
66272;SDS011;58450;52.150;4.466;2023-07-08T14:35:39;6.05;;;3.80;;
66272;SDS011;58450;52.150;4.466;2023-07-08T14:38:10;6.55;;;3.90;;
66272;SDS011;58450;52.150;4.466;2023-07-08T14:40:40;7.28;;;3.53;;
66272;SDS011;58450;52.150;4.466;2023-07-08T14:43:11;5.60;;;3.60;;
66272;SDS011;58450;52.150;4.466;2023-07-08T14:45:46;6.10;;;3.50;;
66272;SDS011;58450;52.150;4.466;2023-07-08T14:48:17;5.60;;;3.28;;
66272;SDS011;58450;52.150;4.466;2023-07-08T14:50:45;5.18;;;3.28;;
66272;SDS011;58450;52.150;4.466;2023-07-08T14:53:14;6.22;;;3.47;;
66272;SDS011;58450;52.150;4.466;2023-07-08T14:55:45;5.72;;;3.53;;
66272;SDS011;58450;52.150;4.466;2023-07-08T14:58:17;7.78;;;3.70;;
66272;SDS011;58450;52.150;4.466;2023-07-08T15:00:49;5.82;;;3.67;;
66272;SDS011;58450;52.150;4.466;2023-07-08T15:03:18;5.40;;;3.42;;
66272;SDS011;58450;52.150;4.466;2023-07-08T15:05:46;6.05;;;3.75;;
66272;SDS011;58450;52.150;4.466;2023-07-08T15:08:15;5.30;;;3.70;;
66272;SDS011;58450;52.150;4.466;2023-07-08T15:10:44;6.85;;;3.80;;
66272;SDS011;58450;52.150;4.466;2023-07-08T15:13:20;7.43;;;4.13;;
66272;SDS011;58450;52.150;4.466;2023-07-08T15:15:55;6.40;;;3.90;;
66272;SDS011;58450;52.150;4.466;2023-07-08T15:18:23;7.15;;;4.10;;
66272;SDS011;58450;52.150;4.466;2023-07-08T15:20:51;8.30;;;4.22;;
66272;SDS011;58450;52.150;4.466;2023-07-08T15:23:20;6.93;;;4.13;;
66272;SDS011;58450;52.150;4.466;2023-07-08T15:25:47;6.28;;;4.03;;
66272;SDS011;58450;52.150;4.466;2023-07-08T15:28:16;6.10;;;4.10;;
66272;SDS011;58450;52.150;4.466;2023-07-08T15:30:49;6.93;;;4.38;;
66272;SDS011;58450;52.150;4.466;2023-07-08T15:33:17;7.88;;;4.47;;
66272;SDS011;58450;52.150;4.466;2023-07-08T15:35:45;6.72;;;4.30;;
66272;SDS011;58450;52.150;4.466;2023-07-08T15:38:13;8.63;;;4.38;;
66272;SDS011;58450;52.150;4.466;2023-07-08T15:40:41;9.88;;;4.50;;
66272;SDS011;58450;52.150;4.466;2023-07-08T15:43:11;8.32;;;4.70;;
66272;SDS011;58450;52.150;4.466;2023-07-08T15:45:42;7.47;;;4.70;;
66272;SDS011;58450;52.150;4.466;2023-07-08T15:48:11;7.10;;;4.53;;
66272;SDS011;58450;52.150;4.466;2023-07-08T15:50:40;8.63;;;4.97;;
66272;SDS011;58450;52.150;4.466;2023-07-08T15:53:08;6.25;;;4.47;;
66272;SDS011;58450;52.150;4.466;2023-07-08T15:55:38;7.97;;;4.40;;
66272;SDS011;58450;52.150;4.466;2023-07-08T15:58:11;6.55;;;4.50;;
66272;SDS011;58450;52.150;4.466;2023-07-08T16:00:52;8.25;;;4.85;;
66272;SDS011;58450;52.150;4.466;2023-07-08T16:03:22;6.13;;;4.05;;
66272;SDS011;58450;52.150;4.466;2023-07-08T16:05:53;7.63;;;4.93;;
66272;SDS011;58450;52.150;4.466;2023-07-08T16:08:23;8.40;;;4.97;;
66272;SDS011;58450;52.150;4.466;2023-07-08T16:10:53;9.27;;;5.70;;
66272;SDS011;58450;52.150;4.466;2023-07-08T16:15:55;7.60;;;5.20;;
66272;SDS011;58450;52.150;4.466;2023-07-08T16:18:23;9.10;;;4.97;;
66272;SDS011;58450;52.150;4.466;2023-07-08T16:20:52;8.13;;;4.57;;
66272;SDS011;58450;52.150;4.466;2023-07-08T16:23:20;6.50;;;4.40;;
66272;SDS011;58450;52.150;4.466;2023-07-08T16:25:49;7.63;;;4.70;;
66272;SDS011;58450;52.150;4.466;2023-07-08T16:28:22;8.53;;;5.40;;
66272;SDS011;58450;52.150;4.466;2023-07-08T16:31:08;8.55;;;5.10;;
66272;SDS011;58450;52.150;4.466;2023-07-08T16:33:37;8.10;;;5.28;;
66272;SDS011;58450;52.150;4.466;2023-07-08T16:36:07;8.27;;;5.20;;
66272;SDS011;58450;52.150;4.466;2023-07-08T16:38:40;8.43;;;4.80;;
66272;SDS011;58450;52.150;4.466;2023-07-08T16:41:09;7.30;;;4.63;;
66272;SDS011;58450;52.150;4.466;2023-07-08T16:43:39;6.65;;;4.53;;
66272;SDS011;58450;52.150;4.466;2023-07-08T16:46:07;6.70;;;4.60;;
66272;SDS011;58450;52.150;4.466;2023-07-08T16:48:36;6.40;;;4.25;;
66272;SDS011;58450;52.150;4.466;2023-07-08T16:51:04;6.22;;;3.80;;
66272;SDS011;58450;52.150;4.466;2023-07-08T16:53:39;7.53;;;4.28;;
66272;SDS011;58450;52.150;4.466;2023-07-08T16:56:07;8.75;;;4.63;;
66272;SDS011;58450;52.150;4.466;2023-07-08T16:58:37;8.10;;;4.68;;
66272;SDS011;58450;52.150;4.466;2023-07-08T17:01:08;6.82;;;4.70;;
66272;SDS011;58450;52.150;4.466;2023-07-08T17:03:44;8.45;;;4.40;;
66272;SDS011;58450;52.150;4.466;2023-07-08T17:06:12;7.47;;;4.45;;
66272;SDS011;58450;52.150;4.466;2023-07-08T17:08:40;8.23;;;4.53;;
66272;SDS011;58450;52.150;4.466;2023-07-08T17:11:08;7.57;;;4.57;;
66272;SDS011;58450;52.150;4.466;2023-07-08T17:13:37;7.63;;;4.60;;
66272;SDS011;58450;52.150;4.466;2023-07-08T17:16:05;6.38;;;4.47;;
66272;SDS011;58450;52.150;4.466;2023-07-08T17:18:40;6.63;;;4.25;;
66272;SDS011;58450;52.150;4.466;2023-07-08T17:21:10;8.98;;;4.95;;
66272;SDS011;58450;52.150;4.466;2023-07-08T17:23:41;6.57;;;4.43;;
66272;SDS011;58450;52.150;4.466;2023-07-08T17:26:10;8.27;;;4.75;;
66272;SDS011;58450;52.150;4.466;2023-07-08T17:28:37;6.75;;;4.60;;
66272;SDS011;58450;52.150;4.466;2023-07-08T17:31:05;6.82;;;4.32;;
66272;SDS011;58450;52.150;4.466;2023-07-08T17:33:40;7.55;;;4.30;;
66272;SDS011;58450;52.150;4.466;2023-07-08T17:36:09;6.97;;;4.70;;
66272;SDS011;58450;52.150;4.466;2023-07-08T17:38:41;7.47;;;4.50;;
66272;SDS011;58450;52.150;4.466;2023-07-08T17:41:14;6.82;;;4.40;;
66272;SDS011;58450;52.150;4.466;2023-07-08T17:43:45;7.32;;;4.47;;
66272;SDS011;58450;52.150;4.466;2023-07-08T17:46:25;6.75;;;4.28;;
66272;SDS011;58450;52.150;4.466;2023-07-08T17:48:55;7.63;;;4.35;;
66272;SDS011;58450;52.150;4.466;2023-07-08T17:51:24;6.30;;;4.35;;
66272;SDS011;58450;52.150;4.466;2023-07-08T17:53:55;7.38;;;4.72;;
66272;SDS011;58450;52.150;4.466;2023-07-08T17:56:25;7.25;;;4.43;;
66272;SDS011;58450;52.150;4.466;2023-07-08T17:58:59;6.43;;;4.45;;
66272;SDS011;58450;52.150;4.466;2023-07-08T18:01:30;8.63;;;4.45;;
66272;SDS011;58450;52.150;4.466;2023-07-08T18:03:58;6.85;;;4.50;;
66272;SDS011;58450;52.150;4.466;2023-07-08T18:06:26;7.15;;;4.50;;
66272;SDS011;58450;52.150;4.466;2023-07-08T18:08:53;6.05;;;4.00;;
66272;SDS011;58450;52.150;4.466;2023-07-08T18:11:21;6.35;;;4.30;;
66272;SDS011;58450;52.150;4.466;2023-07-08T18:13:52;6.05;;;4.18;;
66272;SDS011;58450;52.150;4.466;2023-07-08T18:16:22;7.97;;;4.10;;
66272;SDS011;58450;52.150;4.466;2023-07-08T18:18:50;5.65;;;3.83;;
66272;SDS011;58450;52.150;4.466;2023-07-08T18:21:18;5.45;;;3.80;;
66272;SDS011;58450;52.150;4.466;2023-07-08T18:23:49;5.95;;;3.80;;
66272;SDS011;58450;52.150;4.466;2023-07-08T18:26:21;6.05;;;3.80;;
66272;SDS011;58450;52.150;4.466;2023-07-08T18:28:52;7.00;;;3.83;;
66272;SDS011;58450;52.150;4.466;2023-07-08T18:31:21;6.55;;;3.58;;
66272;SDS011;58450;52.150;4.466;2023-07-08T18:33:55;7.22;;;3.97;;
66272;SDS011;58450;52.150;4.466;2023-07-08T18:36:23;7.55;;;3.97;;
66272;SDS011;58450;52.150;4.466;2023-07-08T18:38:50;6.20;;;3.72;;
66272;SDS011;58450;52.150;4.466;2023-07-08T18:41:19;5.97;;;3.83;;
66272;SDS011;58450;52.150;4.466;2023-07-08T18:43:50;6.25;;;4.10;;
66272;SDS011;58450;52.150;4.466;2023-07-08T18:46:21;6.38;;;4.38;;
66272;SDS011;58450;52.150;4.466;2023-07-08T18:48:49;5.68;;;3.95;;
66272;SDS011;58450;52.150;4.466;2023-07-08T18:51:17;6.60;;;4.13;;
66272;SDS011;58450;52.150;4.466;2023-07-08T18:53:52;7.28;;;4.28;;
66272;SDS011;58450;52.150;4.466;2023-07-08T18:56:20;6.38;;;4.45;;
66272;SDS011;58450;52.150;4.466;2023-07-08T18:58:49;6.28;;;4.28;;
66272;SDS011;58450;52.150;4.466;2023-07-08T19:01:18;6.82;;;4.20;;
66272;SDS011;58450;52.150;4.466;2023-07-08T19:03:50;6.50;;;4.40;;
66272;SDS011;58450;52.150;4.466;2023-07-08T19:06:19;7.63;;;4.85;;
66272;SDS011;58450;52.150;4.466;2023-07-08T19:08:47;7.40;;;4.50;;
66272;SDS011;58450;52.150;4.466;2023-07-08T19:11:16;8.43;;;4.47;;
66272;SDS011;58450;52.150;4.466;2023-07-08T19:13:45;6.72;;;4.30;;
66272;SDS011;58450;52.150;4.466;2023-07-08T19:16:13;6.28;;;4.55;;
66272;SDS011;58450;52.150;4.466;2023-07-08T19:18:45;7.20;;;4.50;;
66272;SDS011;58450;52.150;4.466;2023-07-08T19:21:14;6.35;;;4.28;;
66272;SDS011;58450;52.150;4.466;2023-07-08T19:23:48;6.93;;;4.95;;
66272;SDS011;58450;52.150;4.466;2023-07-08T19:26:20;7.07;;;4.70;;
66272;SDS011;58450;52.150;4.466;2023-07-08T19:28:51;8.90;;;4.97;;
66272;SDS011;58450;52.150;4.466;2023-07-08T19:31:21;8.85;;;5.07;;
66272;SDS011;58450;52.150;4.466;2023-07-08T19:33:55;7.28;;;5.03;;
66272;SDS011;58450;52.150;4.466;2023-07-08T19:36:23;6.80;;;4.80;;
66272;SDS011;58450;52.150;4.466;2023-07-08T19:38:51;7.47;;;4.35;;
66272;SDS011;58450;52.150;4.466;2023-07-08T19:41:20;7.18;;;4.90;;
66272;SDS011;58450;52.150;4.466;2023-07-08T19:43:53;7.68;;;4.75;;
66272;SDS011;58450;52.150;4.466;2023-07-08T19:46:23;7.40;;;5.03;;
66272;SDS011;58450;52.150;4.466;2023-07-08T19:48:50;8.65;;;4.90;;
66272;SDS011;58450;52.150;4.466;2023-07-08T19:51:19;6.82;;;4.40;;
66272;SDS011;58450;52.150;4.466;2023-07-08T19:53:47;8.23;;;4.80;;
66272;SDS011;58450;52.150;4.466;2023-07-08T19:56:17;7.45;;;4.72;;
66272;SDS011;58450;52.150;4.466;2023-07-08T19:58:47;8.73;;;5.13;;
66272;SDS011;58450;52.150;4.466;2023-07-08T20:01:15;6.45;;;4.70;;
66272;SDS011;58450;52.150;4.466;2023-07-08T20:03:42;8.90;;;5.07;;
66272;SDS011;58450;52.150;4.466;2023-07-08T20:06:10;7.50;;;5.05;;
66272;SDS011;58450;52.150;4.466;2023-07-08T20:08:40;7.20;;;4.93;;
66272;SDS011;58450;52.150;4.466;2023-07-08T20:11:08;8.20;;;5.22;;
66272;SDS011;58450;52.150;4.466;2023-07-08T20:13:37;7.47;;;5.15;;
66272;SDS011;58450;52.150;4.466;2023-07-08T20:16:09;7.53;;;4.95;;
66272;SDS011;58450;52.150;4.466;2023-07-08T20:18:40;7.40;;;4.78;;
66272;SDS011;58450;52.150;4.466;2023-07-08T20:21:08;9.05;;;5.30;;
66272;SDS011;58450;52.150;4.466;2023-07-08T20:23:36;8.25;;;4.80;;
66272;SDS011;58450;52.150;4.466;2023-07-08T20:26:12;7.85;;;4.88;;
66272;SDS011;58450;52.150;4.466;2023-07-08T20:28:53;9.15;;;5.95;;
66272;SDS011;58450;52.150;4.466;2023-07-08T20:31:22;9.25;;;6.22;;
66272;SDS011;58450;52.150;4.466;2023-07-08T20:33:50;8.05;;;5.72;;
66272;SDS011;58450;52.150;4.466;2023-07-08T20:36:19;8.75;;;6.05;;
66272;SDS011;58450;52.150;4.466;2023-07-08T20:38:49;8.80;;;5.65;;
66272;SDS011;58450;52.150;4.466;2023-07-08T20:41:18;8.55;;;5.55;;
66272;SDS011;58450;52.150;4.466;2023-07-08T20:43:46;7.65;;;5.00;;
66272;SDS011;58450;52.150;4.466;2023-07-08T20:46:15;8.40;;;5.80;;
66272;SDS011;58450;52.150;4.466;2023-07-08T20:48:47;7.82;;;5.45;;
66272;SDS011;58450;52.150;4.466;2023-07-08T20:51:17;8.13;;;5.30;;
66272;SDS011;58450;52.150;4.466;2023-07-08T20:53:44;9.05;;;6.43;;
66272;SDS011;58450;52.150;4.466;2023-07-08T20:56:14;8.27;;;5.57;;
66272;SDS011;58450;52.150;4.466;2023-07-08T20:58:45;7.78;;;5.53;;
66272;SDS011;58450;52.150;4.466;2023-07-08T21:01:13;8.48;;;5.97;;
66272;SDS011;58450;52.150;4.466;2023-07-08T21:03:41;9.75;;;6.35;;
66272;SDS011;58450;52.150;4.466;2023-07-08T21:06:10;9.57;;;6.40;;
66272;SDS011;58450;52.150;4.466;2023-07-08T21:08:46;9.82;;;6.43;;
66272;SDS011;58450;52.150;4.466;2023-07-08T21:11:14;8.57;;;6.15;;
66272;SDS011;58450;52.150;4.466;2023-07-08T21:13:44;9.52;;;6.30;;
66272;SDS011;58450;52.150;4.466;2023-07-08T21:16:13;9.88;;;6.85;;
66272;SDS011;58450;52.150;4.466;2023-07-08T21:18:43;9.40;;;6.57;;
66272;SDS011;58450;52.150;4.466;2023-07-08T21:21:12;9.40;;;6.55;;
66272;SDS011;58450;52.150;4.466;2023-07-08T21:23:41;11.07;;;6.30;;
66272;SDS011;58450;52.150;4.466;2023-07-08T21:26:14;9.40;;;6.40;;
66272;SDS011;58450;52.150;4.466;2023-07-08T21:28:48;9.50;;;6.63;;
66272;SDS011;58450;52.150;4.466;2023-07-08T21:31:19;10.50;;;7.32;;
66272;SDS011;58450;52.150;4.466;2023-07-08T21:33:46;9.77;;;6.80;;
66272;SDS011;58450;52.150;4.466;2023-07-08T21:36:18;9.75;;;6.60;;
66272;SDS011;58450;52.150;4.466;2023-07-08T21:38:50;9.63;;;6.68;;
66272;SDS011;58450;52.150;4.466;2023-07-08T21:41:20;9.18;;;6.60;;
66272;SDS011;58450;52.150;4.466;2023-07-08T21:43:49;9.93;;;6.57;;
66272;SDS011;58450;52.150;4.466;2023-07-08T21:46:16;9.93;;;6.30;;
66272;SDS011;58450;52.150;4.466;2023-07-08T21:48:46;9.13;;;6.43;;
66272;SDS011;58450;52.150;4.466;2023-07-08T21:51:14;8.35;;;6.20;;
66272;SDS011;58450;52.150;4.466;2023-07-08T21:53:52;9.27;;;6.35;;
66272;SDS011;58450;52.150;4.466;2023-07-08T21:56:20;8.45;;;5.85;;
66272;SDS011;58450;52.150;4.466;2023-07-08T21:58:49;9.27;;;6.13;;
66272;SDS011;58450;52.150;4.466;2023-07-08T22:01:18;10.00;;;5.90;;
66272;SDS011;58450;52.150;4.466;2023-07-08T22:03:48;7.88;;;6.00;;
66272;SDS011;58450;52.150;4.466;2023-07-08T22:06:17;8.75;;;5.63;;
66272;SDS011;58450;52.150;4.466;2023-07-08T22:08:47;10.55;;;5.90;;
66272;SDS011;58450;52.150;4.466;2023-07-08T22:11:15;7.43;;;5.68;;
66272;SDS011;58450;52.150;4.466;2023-07-08T22:16:19;9.75;;;6.13;;
66272;SDS011;58450;52.150;4.466;2023-07-08T22:18:49;8.93;;;5.88;;
66272;SDS011;58450;52.150;4.466;2023-07-08T22:21:18;10.02;;;6.07;;
66272;SDS011;58450;52.150;4.466;2023-07-08T22:23:54;12.05;;;7.10;;
66272;SDS011;58450;52.150;4.466;2023-07-08T22:26:23;11.35;;;6.80;;
66272;SDS011;58450;52.150;4.466;2023-07-08T22:28:52;9.90;;;6.90;;
66272;SDS011;58450;52.150;4.466;2023-07-08T22:31:22;9.75;;;6.65;;
66272;SDS011;58450;52.150;4.466;2023-07-08T22:33:53;10.45;;;6.40;;
66272;SDS011;58450;52.150;4.466;2023-07-08T22:36:21;9.20;;;7.00;;
66272;SDS011;58450;52.150;4.466;2023-07-08T22:38:57;9.77;;;7.07;;
66272;SDS011;58450;52.150;4.466;2023-07-08T22:41:26;9.80;;;6.45;;
66272;SDS011;58450;52.150;4.466;2023-07-08T22:43:59;10.23;;;6.90;;
66272;SDS011;58450;52.150;4.466;2023-07-08T22:46:27;10.48;;;7.18;;
66272;SDS011;58450;52.150;4.466;2023-07-08T22:48:54;9.93;;;6.85;;
66272;SDS011;58450;52.150;4.466;2023-07-08T22:51:23;9.70;;;7.05;;
66272;SDS011;58450;52.150;4.466;2023-07-08T22:53:53;9.32;;;6.70;;
66272;SDS011;58450;52.150;4.466;2023-07-08T22:56:22;9.82;;;7.28;;
66272;SDS011;58450;52.150;4.466;2023-07-08T22:58:50;10.63;;;6.63;;
66272;SDS011;58450;52.150;4.466;2023-07-08T23:01:19;10.68;;;7.03;;
66272;SDS011;58450;52.150;4.466;2023-07-08T23:03:47;10.70;;;7.50;;
66272;SDS011;58450;52.150;4.466;2023-07-08T23:06:15;11.70;;;7.43;;
66272;SDS011;58450;52.150;4.466;2023-07-08T23:08:47;10.85;;;7.47;;
66272;SDS011;58450;52.150;4.466;2023-07-08T23:11:14;11.15;;;7.55;;
66272;SDS011;58450;52.150;4.466;2023-07-08T23:13:42;9.32;;;7.07;;
66272;SDS011;58450;52.150;4.466;2023-07-08T23:16:18;9.05;;;6.80;;
66272;SDS011;58450;52.150;4.466;2023-07-08T23:18:57;10.27;;;6.80;;
66272;SDS011;58450;52.150;4.466;2023-07-08T23:21:27;8.82;;;6.38;;
66272;SDS011;58450;52.150;4.466;2023-07-08T23:23:56;10.40;;;6.82;;
66272;SDS011;58450;52.150;4.466;2023-07-08T23:26:24;8.50;;;6.50;;
66272;SDS011;58450;52.150;4.466;2023-07-08T23:28:59;10.38;;;7.10;;
66272;SDS011;58450;52.150;4.466;2023-07-08T23:31:30;9.43;;;7.03;;
66272;SDS011;58450;52.150;4.466;2023-07-08T23:33:59;10.48;;;7.38;;
66272;SDS011;58450;52.150;4.466;2023-07-08T23:36:29;9.57;;;6.70;;
66272;SDS011;58450;52.150;4.466;2023-07-08T23:39:01;11.05;;;7.05;;
66272;SDS011;58450;52.150;4.466;2023-07-08T23:41:37;9.95;;;6.97;;
66272;SDS011;58450;52.150;4.466;2023-07-08T23:44:04;9.50;;;6.90;;
66272;SDS011;58450;52.150;4.466;2023-07-08T23:46:33;10.25;;;6.85;;
66272;SDS011;58450;52.150;4.466;2023-07-08T23:49:03;9.98;;;7.22;;
66272;SDS011;58450;52.150;4.466;2023-07-08T23:51:45;9.52;;;6.72;;
66272;SDS011;58450;52.150;4.466;2023-07-08T23:54:18;10.23;;;7.05;;
66272;SDS011;58450;52.150;4.466;2023-07-08T23:56:48;11.38;;;7.82;;
66272;SDS011;58450;52.150;4.466;2023-07-08T23:59:17;11.45;;;8.18;;
